sensor_id;sensor_type;location;lat;lon;timestamp;P1;durP1;ratioP1;P2;durP2;ratioP2
69087;SDS011;56190;43.562;5.036;2022-09-13T00:01:24;4.80;;;3.17;;
69087;SDS011;56190;43.562;5.036;2022-09-13T00:03:50;5.13;;;3.38;;
69087;SDS011;56190;43.562;5.036;2022-09-13T00:06:16;4.60;;;3.00;;
69087;SDS011;56190;43.562;5.036;2022-09-13T00:08:43;5.18;;;2.92;;
69087;SDS011;56190;43.562;5.036;2022-09-13T00:11:13;5.47;;;3.40;;
69087;SDS011;56190;43.562;5.036;2022-09-13T00:13:38;4.28;;;3.40;;
69087;SDS011;56190;43.562;5.036;2022-09-13T00:16:04;5.85;;;3.08;;
69087;SDS011;56190;43.562;5.036;2022-09-13T00:18:34;4.00;;;3.40;;
69087;SDS011;56190;43.562;5.036;2022-09-13T00:21:33;4.45;;;3.35;;
69087;SDS011;56190;43.562;5.036;2022-09-13T00:23:53;5.18;;;2.83;;
69087;SDS011;56190;43.562;5.036;2022-09-13T00:26:20;4.78;;;3.70;;
69087;SDS011;56190;43.562;5.036;2022-09-13T00:28:49;4.75;;;3.55;;
69087;SDS011;56190;43.562;5.036;2022-09-13T00:31:18;6.70;;;3.40;;
69087;SDS011;56190;43.562;5.036;2022-09-13T00:33:43;3.40;;;3.08;;
69087;SDS011;56190;43.562;5.036;2022-09-13T00:36:09;5.97;;;3.88;;
69087;SDS011;56190;43.562;5.036;2022-09-13T00:38:35;4.22;;;3.20;;
69087;SDS011;56190;43.562;5.036;2022-09-13T00:41:02;3.83;;;3.13;;
69087;SDS011;56190;43.562;5.036;2022-09-13T00:43:39;7.57;;;3.60;;
69087;SDS011;56190;43.562;5.036;2022-09-13T00:46:05;4.85;;;3.60;;
69087;SDS011;56190;43.562;5.036;2022-09-13T00:48:31;4.50;;;3.00;;
69087;SDS011;56190;43.562;5.036;2022-09-13T00:50:57;4.95;;;3.90;;
69087;SDS011;56190;43.562;5.036;2022-09-13T00:53:24;3.53;;;3.22;;
69087;SDS011;56190;43.562;5.036;2022-09-13T00:55:58;3.45;;;3.15;;
69087;SDS011;56190;43.562;5.036;2022-09-13T00:58:26;5.13;;;3.70;;
69087;SDS011;56190;43.562;5.036;2022-09-13T01:00:53;6.30;;;3.17;;
69087;SDS011;56190;43.562;5.036;2022-09-13T01:03:19;5.40;;;3.53;;
69087;SDS011;56190;43.562;5.036;2022-09-13T01:05:47;3.83;;;3.42;;
69087;SDS011;56190;43.562;5.036;2022-09-13T01:08:15;4.60;;;3.13;;
69087;SDS011;56190;43.562;5.036;2022-09-13T01:10:44;4.38;;;3.38;;
69087;SDS011;56190;43.562;5.036;2022-09-13T01:13:15;4.25;;;3.40;;
69087;SDS011;56190;43.562;5.036;2022-09-13T01:15:42;3.72;;;3.03;;
69087;SDS011;56190;43.562;5.036;2022-09-13T01:18:07;4.95;;;3.53;;
69087;SDS011;56190;43.562;5.036;2022-09-13T01:25:58;4.18;;;3.42;;
69087;SDS011;56190;43.562;5.036;2022-09-13T01:33:54;4.13;;;3.38;;
69087;SDS011;56190;43.562;5.036;2022-09-13T01:44:17;4.30;;;3.17;;
69087;SDS011;56190;43.562;5.036;2022-09-13T01:46:57;4.65;;;3.53;;
69087;SDS011;56190;43.562;5.036;2022-09-13T01:52:35;5.63;;;3.40;;
69087;SDS011;56190;43.562;5.036;2022-09-13T01:54:53;6.03;;;3.38;;
69087;SDS011;56190;43.562;5.036;2022-09-13T01:59:52;29.05;;;3.97;;
69087;SDS011;56190;43.562;5.036;2022-09-13T02:02:29;9.75;;;3.30;;
69087;SDS011;56190;43.562;5.036;2022-09-13T02:05:00;5.50;;;3.05;;
69087;SDS011;56190;43.562;5.036;2022-09-13T02:07:29;7.63;;;3.93;;
69087;SDS011;56190;43.562;5.036;2022-09-13T02:09:59;9.80;;;3.22;;
69087;SDS011;56190;43.562;5.036;2022-09-13T02:12:26;3.65;;;3.35;;
69087;SDS011;56190;43.562;5.036;2022-09-13T02:15:14;8.02;;;3.28;;
69087;SDS011;56190;43.562;5.036;2022-09-13T02:17:40;4.35;;;3.30;;
69087;SDS011;56190;43.562;5.036;2022-09-13T02:20:18;6.75;;;3.22;;
69087;SDS011;56190;43.562;5.036;2022-09-13T02:22:46;5.82;;;3.70;;
69087;SDS011;56190;43.562;5.036;2022-09-13T02:25:13;7.50;;;3.45;;
69087;SDS011;56190;43.562;5.036;2022-09-13T02:27:39;7.10;;;3.60;;
69087;SDS011;56190;43.562;5.036;2022-09-13T02:30:06;5.97;;;3.30;;
69087;SDS011;56190;43.562;5.036;2022-09-13T02:32:34;3.60;;;3.30;;
69087;SDS011;56190;43.562;5.036;2022-09-13T02:35:02;3.88;;;3.50;;
69087;SDS011;56190;43.562;5.036;2022-09-13T02:37:28;6.53;;;2.97;;
69087;SDS011;56190;43.562;5.036;2022-09-13T02:39:56;4.18;;;3.20;;
69087;SDS011;56190;43.562;5.036;2022-09-13T02:42:34;7.68;;;2.97;;
69087;SDS011;56190;43.562;5.036;2022-09-13T02:45:00;3.47;;;3.00;;
69087;SDS011;56190;43.562;5.036;2022-09-13T03:00:45;8.85;;;3.38;;
69087;SDS011;56190;43.562;5.036;2022-09-13T03:03:11;4.95;;;3.10;;
69087;SDS011;56190;43.562;5.036;2022-09-13T03:05:38;5.13;;;3.70;;
69087;SDS011;56190;43.562;5.036;2022-09-13T03:08:04;4.60;;;3.13;;
69087;SDS011;56190;43.562;5.036;2022-09-13T03:10:32;4.35;;;3.40;;
69087;SDS011;56190;43.562;5.036;2022-09-13T03:20:43;5.50;;;3.80;;
69087;SDS011;56190;43.562;5.036;2022-09-13T03:28:16;6.10;;;3.20;;
69087;SDS011;56190;43.562;5.036;2022-09-13T03:30:45;5.28;;;3.75;;
69087;SDS011;56190;43.562;5.036;2022-09-13T03:35:54;4.35;;;3.80;;
69087;SDS011;56190;43.562;5.036;2022-09-13T03:38:26;4.50;;;3.78;;
69087;SDS011;56190;43.562;5.036;2022-09-13T03:40:55;3.83;;;3.35;;
69087;SDS011;56190;43.562;5.036;2022-09-13T03:43:25;3.80;;;3.40;;
69087;SDS011;56190;43.562;5.036;2022-09-13T03:45:55;5.78;;;3.65;;
69087;SDS011;56190;43.562;5.036;2022-09-13T03:48:21;7.32;;;4.03;;
69087;SDS011;56190;43.562;5.036;2022-09-13T03:50:48;6.60;;;3.50;;
69087;SDS011;56190;43.562;5.036;2022-09-13T03:53:17;5.60;;;4.10;;
69087;SDS011;56190;43.562;5.036;2022-09-13T03:55:44;4.15;;;3.50;;
69087;SDS011;56190;43.562;5.036;2022-09-13T03:58:10;4.05;;;3.63;;
69087;SDS011;56190;43.562;5.036;2022-09-13T04:00:36;3.92;;;3.53;;
69087;SDS011;56190;43.562;5.036;2022-09-13T04:03:02;5.40;;;4.03;;
69087;SDS011;56190;43.562;5.036;2022-09-13T04:05:27;5.03;;;3.65;;
69087;SDS011;56190;43.562;5.036;2022-09-13T04:07:53;5.35;;;3.80;;
69087;SDS011;56190;43.562;5.036;2022-09-13T04:10:18;7.10;;;3.60;;
69087;SDS011;56190;43.562;5.036;2022-09-13T04:12:43;5.78;;;3.88;;
69087;SDS011;56190;43.562;5.036;2022-09-13T04:15:08;6.40;;;4.00;;
69087;SDS011;56190;43.562;5.036;2022-09-13T04:17:34;4.68;;;3.97;;
69087;SDS011;56190;43.562;5.036;2022-09-13T04:20:00;4.90;;;3.78;;
69087;SDS011;56190;43.562;5.036;2022-09-13T04:22:25;4.53;;;4.13;;
69087;SDS011;56190;43.562;5.036;2022-09-13T04:24:51;6.68;;;3.70;;
69087;SDS011;56190;43.562;5.036;2022-09-13T04:27:17;3.85;;;3.30;;
69087;SDS011;56190;43.562;5.036;2022-09-13T04:29:42;3.67;;;3.20;;
69087;SDS011;56190;43.562;5.036;2022-09-13T04:32:07;5.95;;;3.53;;
69087;SDS011;56190;43.562;5.036;2022-09-13T04:34:33;5.18;;;3.90;;
69087;SDS011;56190;43.562;5.036;2022-09-13T04:36:58;4.68;;;3.38;;
69087;SDS011;56190;43.562;5.036;2022-09-13T04:39:24;5.07;;;3.70;;
69087;SDS011;56190;43.562;5.036;2022-09-13T04:41:50;5.03;;;3.67;;
69087;SDS011;56190;43.562;5.036;2022-09-13T04:44:16;5.75;;;3.67;;
69087;SDS011;56190;43.562;5.036;2022-09-13T04:46:41;5.03;;;3.70;;
69087;SDS011;56190;43.562;5.036;2022-09-13T04:49:08;6.53;;;4.00;;
69087;SDS011;56190;43.562;5.036;2022-09-13T04:51:34;6.47;;;3.60;;
69087;SDS011;56190;43.562;5.036;2022-09-13T04:53:59;3.88;;;3.47;;
69087;SDS011;56190;43.562;5.036;2022-09-13T04:56:25;4.80;;;4.00;;
69087;SDS011;56190;43.562;5.036;2022-09-13T04:58:50;4.80;;;4.10;;
69087;SDS011;56190;43.562;5.036;2022-09-13T05:01:16;5.03;;;3.90;;
69087;SDS011;56190;43.562;5.036;2022-09-13T05:03:41;4.80;;;4.40;;
69087;SDS011;56190;43.562;5.036;2022-09-13T05:06:07;6.82;;;3.97;;
69087;SDS011;56190;43.562;5.036;2022-09-13T05:08:33;5.57;;;4.32;;
69087;SDS011;56190;43.562;5.036;2022-09-13T05:10:58;5.65;;;3.92;;
69087;SDS011;56190;43.562;5.036;2022-09-13T05:13:24;5.43;;;4.05;;
69087;SDS011;56190;43.562;5.036;2022-09-13T05:15:53;3.95;;;3.47;;
69087;SDS011;56190;43.562;5.036;2022-09-13T05:18:18;5.05;;;3.78;;
69087;SDS011;56190;43.562;5.036;2022-09-13T05:20:44;4.40;;;3.60;;
69087;SDS011;56190;43.562;5.036;2022-09-13T05:23:09;5.28;;;3.97;;
69087;SDS011;56190;43.562;5.036;2022-09-13T05:25:34;4.50;;;4.00;;
69087;SDS011;56190;43.562;5.036;2022-09-13T05:27:59;6.10;;;4.30;;
69087;SDS011;56190;43.562;5.036;2022-09-13T05:30:25;4.53;;;3.50;;
69087;SDS011;56190;43.562;5.036;2022-09-13T05:32:50;4.28;;;3.30;;
69087;SDS011;56190;43.562;5.036;2022-09-13T05:35:15;5.70;;;3.83;;
69087;SDS011;56190;43.562;5.036;2022-09-13T05:37:40;7.57;;;4.00;;
69087;SDS011;56190;43.562;5.036;2022-09-13T05:40:06;5.68;;;3.35;;
69087;SDS011;56190;43.562;5.036;2022-09-13T05:42:31;4.05;;;3.28;;
69087;SDS011;56190;43.562;5.036;2022-09-13T05:44:56;6.80;;;3.75;;
69087;SDS011;56190;43.562;5.036;2022-09-13T05:47:22;4.85;;;3.13;;
69087;SDS011;56190;43.562;5.036;2022-09-13T05:49:47;4.10;;;3.67;;
69087;SDS011;56190;43.562;5.036;2022-09-13T05:52:12;6.85;;;3.72;;
69087;SDS011;56190;43.562;5.036;2022-09-13T05:54:37;3.63;;;3.33;;
69087;SDS011;56190;43.562;5.036;2022-09-13T05:57:03;5.03;;;3.58;;
69087;SDS011;56190;43.562;5.036;2022-09-13T05:59:28;7.32;;;3.83;;
69087;SDS011;56190;43.562;5.036;2022-09-13T06:01:53;6.43;;;3.40;;
69087;SDS011;56190;43.562;5.036;2022-09-13T06:04:19;6.35;;;3.83;;
69087;SDS011;56190;43.562;5.036;2022-09-13T06:06:44;6.15;;;3.90;;
69087;SDS011;56190;43.562;5.036;2022-09-13T06:09:10;5.05;;;3.83;;
69087;SDS011;56190;43.562;5.036;2022-09-13T06:11:36;5.63;;;3.65;;
69087;SDS011;56190;43.562;5.036;2022-09-13T06:14:01;4.18;;;3.33;;
69087;SDS011;56190;43.562;5.036;2022-09-13T06:16:26;5.13;;;3.67;;
69087;SDS011;56190;43.562;5.036;2022-09-13T06:18:51;3.78;;;3.00;;
69087;SDS011;56190;43.562;5.036;2022-09-13T06:21:18;6.38;;;3.65;;
69087;SDS011;56190;43.562;5.036;2022-09-13T06:23:44;5.00;;;3.47;;
69087;SDS011;56190;43.562;5.036;2022-09-13T06:26:10;4.65;;;3.40;;
69087;SDS011;56190;43.562;5.036;2022-09-13T06:28:36;5.70;;;3.35;;
69087;SDS011;56190;43.562;5.036;2022-09-13T06:31:05;8.02;;;3.38;;
69087;SDS011;56190;43.562;5.036;2022-09-13T06:33:35;5.30;;;3.53;;
69087;SDS011;56190;43.562;5.036;2022-09-13T06:36:01;3.90;;;2.95;;
69087;SDS011;56190;43.562;5.036;2022-09-13T06:38:27;8.68;;;5.00;;
69087;SDS011;56190;43.562;5.036;2022-09-13T06:41:02;6.60;;;3.38;;
69087;SDS011;56190;43.562;5.036;2022-09-13T06:43:28;4.20;;;3.33;;
69087;SDS011;56190;43.562;5.036;2022-09-13T06:45:57;7.13;;;3.72;;
69087;SDS011;56190;43.562;5.036;2022-09-13T06:48:23;4.70;;;3.40;;
69087;SDS011;56190;43.562;5.036;2022-09-13T06:50:48;4.38;;;3.00;;
69087;SDS011;56190;43.562;5.036;2022-09-13T06:53:13;6.60;;;3.38;;
69087;SDS011;56190;43.562;5.036;2022-09-13T06:55:38;5.20;;;3.17;;
69087;SDS011;56190;43.562;5.036;2022-09-13T06:58:04;4.90;;;2.85;;
69087;SDS011;56190;43.562;5.036;2022-09-13T07:00:29;6.28;;;3.47;;
69087;SDS011;56190;43.562;5.036;2022-09-13T07:02:54;6.93;;;3.22;;
69087;SDS011;56190;43.562;5.036;2022-09-13T07:05:20;7.15;;;3.53;;
69087;SDS011;56190;43.562;5.036;2022-09-13T07:07:45;6.13;;;3.08;;
69087;SDS011;56190;43.562;5.036;2022-09-13T07:10:11;4.63;;;3.08;;
69087;SDS011;56190;43.562;5.036;2022-09-13T07:12:38;4.97;;;2.65;;
69087;SDS011;56190;43.562;5.036;2022-09-13T07:15:04;4.25;;;2.65;;
69087;SDS011;56190;43.562;5.036;2022-09-13T07:17:29;5.68;;;2.92;;
69087;SDS011;56190;43.562;5.036;2022-09-13T07:19:54;3.63;;;2.67;;
69087;SDS011;56190;43.562;5.036;2022-09-13T07:22:20;5.00;;;2.63;;
69087;SDS011;56190;43.562;5.036;2022-09-13T07:24:50;3.97;;;3.05;;
69087;SDS011;56190;43.562;5.036;2022-09-13T07:27:16;4.72;;;2.53;;
69087;SDS011;56190;43.562;5.036;2022-09-13T07:29:41;4.68;;;2.63;;
69087;SDS011;56190;43.562;5.036;2022-09-13T07:32:06;4.65;;;2.42;;
69087;SDS011;56190;43.562;5.036;2022-09-13T07:34:32;4.72;;;2.60;;
69087;SDS011;56190;43.562;5.036;2022-09-13T07:36:57;6.53;;;2.65;;
69087;SDS011;56190;43.562;5.036;2022-09-13T07:39:22;3.22;;;2.42;;
69087;SDS011;56190;43.562;5.036;2022-09-13T07:41:48;2.63;;;2.20;;
69087;SDS011;56190;43.562;5.036;2022-09-13T07:44:13;4.28;;;2.33;;
69087;SDS011;56190;43.562;5.036;2022-09-13T07:46:38;4.28;;;2.40;;
69087;SDS011;56190;43.562;5.036;2022-09-13T07:49:07;4.15;;;2.67;;
69087;SDS011;56190;43.562;5.036;2022-09-13T07:51:34;4.18;;;2.30;;
69087;SDS011;56190;43.562;5.036;2022-09-13T07:54:00;4.68;;;2.20;;
69087;SDS011;56190;43.562;5.036;2022-09-13T07:56:30;5.07;;;2.40;;
69087;SDS011;56190;43.562;5.036;2022-09-13T07:58:57;5.00;;;2.35;;
69087;SDS011;56190;43.562;5.036;2022-09-13T08:01:25;2.60;;;2.40;;
69087;SDS011;56190;43.562;5.036;2022-09-13T08:03:51;3.50;;;2.33;;
69087;SDS011;56190;43.562;5.036;2022-09-13T08:06:17;5.28;;;2.50;;
69087;SDS011;56190;43.562;5.036;2022-09-13T08:08:42;6.68;;;2.45;;
69087;SDS011;56190;43.562;5.036;2022-09-13T08:11:07;5.65;;;2.58;;
69087;SDS011;56190;43.562;5.036;2022-09-13T08:13:32;3.80;;;2.10;;
69087;SDS011;56190;43.562;5.036;2022-09-13T08:16:04;3.38;;;2.40;;
69087;SDS011;56190;43.562;5.036;2022-09-13T08:20:56;4.00;;;2.40;;
69087;SDS011;56190;43.562;5.036;2022-09-13T08:23:22;5.20;;;2.70;;
69087;SDS011;56190;43.562;5.036;2022-09-13T08:25:47;3.78;;;2.10;;
69087;SDS011;56190;43.562;5.036;2022-09-13T08:28:16;6.68;;;2.65;;
69087;SDS011;56190;43.562;5.036;2022-09-13T08:30:42;4.22;;;2.17;;
69087;SDS011;56190;43.562;5.036;2022-09-13T08:33:07;5.95;;;2.58;;
69087;SDS011;56190;43.562;5.036;2022-09-13T08:35:33;4.38;;;2.65;;
69087;SDS011;56190;43.562;5.036;2022-09-13T08:37:59;3.47;;;2.50;;
69087;SDS011;56190;43.562;5.036;2022-09-13T08:40:25;5.05;;;2.40;;
69087;SDS011;56190;43.562;5.036;2022-09-13T08:45:19;3.95;;;2.00;;
69087;SDS011;56190;43.562;5.036;2022-09-13T08:47:48;3.88;;;2.20;;
69087;SDS011;56190;43.562;5.036;2022-09-13T08:50:34;5.05;;;2.22;;
69087;SDS011;56190;43.562;5.036;2022-09-13T08:58:36;4.07;;;2.30;;
69087;SDS011;56190;43.562;5.036;2022-09-13T09:06:11;3.60;;;2.33;;
69087;SDS011;56190;43.562;5.036;2022-09-13T09:08:39;4.60;;;2.17;;
69087;SDS011;56190;43.562;5.036;2022-09-13T09:11:08;4.80;;;2.40;;
69087;SDS011;56190;43.562;5.036;2022-09-13T09:16:15;8.30;;;2.50;;
69087;SDS011;56190;43.562;5.036;2022-09-13T09:18:45;4.53;;;2.40;;
69087;SDS011;56190;43.562;5.036;2022-09-13T09:21:14;6.35;;;2.63;;
69087;SDS011;56190;43.562;5.036;2022-09-13T09:23:40;5.32;;;2.45;;
69087;SDS011;56190;43.562;5.036;2022-09-13T09:28:33;8.77;;;2.42;;
69087;SDS011;56190;43.562;5.036;2022-09-13T09:31:09;4.57;;;2.08;;
69087;SDS011;56190;43.562;5.036;2022-09-13T09:40:58;3.28;;;2.20;;
69087;SDS011;56190;43.562;5.036;2022-09-13T09:43:27;3.70;;;2.20;;
69087;SDS011;56190;43.562;5.036;2022-09-13T09:45:54;5.78;;;2.60;;
69087;SDS011;56190;43.562;5.036;2022-09-13T09:48:22;4.13;;;2.28;;
69087;SDS011;56190;43.562;5.036;2022-09-13T09:50:51;6.43;;;2.40;;
69087;SDS011;56190;43.562;5.036;2022-09-13T09:53:51;5.22;;;2.20;;
69087;SDS011;56190;43.562;5.036;2022-09-13T09:58:48;4.75;;;2.15;;
69087;SDS011;56190;43.562;5.036;2022-09-13T10:01:15;6.25;;;2.38;;
69087;SDS011;56190;43.562;5.036;2022-09-13T10:03:42;5.50;;;2.30;;
69087;SDS011;56190;43.562;5.036;2022-09-13T10:06:14;5.57;;;2.15;;
69087;SDS011;56190;43.562;5.036;2022-09-13T10:08:42;4.82;;;2.10;;
69087;SDS011;56190;43.562;5.036;2022-09-13T10:11:10;5.63;;;2.35;;
69087;SDS011;56190;43.562;5.036;2022-09-13T10:13:36;3.80;;;2.20;;
69087;SDS011;56190;43.562;5.036;2022-09-13T10:16:06;4.93;;;2.08;;
69087;SDS011;56190;43.562;5.036;2022-09-13T10:18:46;9.75;;;2.15;;
69087;SDS011;56190;43.562;5.036;2022-09-13T10:23:44;3.03;;;2.00;;
69087;SDS011;56190;43.562;5.036;2022-09-13T10:26:10;5.63;;;2.30;;
69087;SDS011;56190;43.562;5.036;2022-09-13T10:28:44;5.65;;;2.38;;
69087;SDS011;56190;43.562;5.036;2022-09-13T10:31:14;5.07;;;1.90;;
69087;SDS011;56190;43.562;5.036;2022-09-13T10:36:31;4.22;;;1.88;;
69087;SDS011;56190;43.562;5.036;2022-09-13T10:38:58;3.25;;;1.90;;
69087;SDS011;56190;43.562;5.036;2022-09-13T10:41:25;4.47;;;2.35;;
69087;SDS011;56190;43.562;5.036;2022-09-13T10:44:01;3.65;;;1.75;;
69087;SDS011;56190;43.562;5.036;2022-09-13T10:46:28;3.88;;;2.03;;
69087;SDS011;56190;43.562;5.036;2022-09-13T10:48:54;2.72;;;1.92;;
69087;SDS011;56190;43.562;5.036;2022-09-13T10:53:50;2.20;;;1.70;;
69087;SDS011;56190;43.562;5.036;2022-09-13T10:56:25;4.72;;;1.80;;
69087;SDS011;56190;43.562;5.036;2022-09-13T10:58:50;3.13;;;1.80;;
69087;SDS011;56190;43.562;5.036;2022-09-13T11:01:54;4.50;;;2.00;;
69087;SDS011;56190;43.562;5.036;2022-09-13T11:12:37;4.90;;;1.50;;
69087;SDS011;56190;43.562;5.036;2022-09-13T11:20:12;3.17;;;1.30;;
69087;SDS011;56190;43.562;5.036;2022-09-13T11:40:58;2.75;;;1.48;;
69087;SDS011;56190;43.562;5.036;2022-09-13T11:51:23;4.88;;;1.60;;
69087;SDS011;56190;43.562;5.036;2022-09-13T11:56:23;3.10;;;1.50;;
69087;SDS011;56190;43.562;5.036;2022-09-13T12:01:17;4.45;;;1.73;;
69087;SDS011;56190;43.562;5.036;2022-09-13T12:03:49;4.90;;;1.40;;
69087;SDS011;56190;43.562;5.036;2022-09-13T12:06:21;4.32;;;1.80;;
69087;SDS011;56190;43.562;5.036;2022-09-13T12:08:53;3.58;;;1.55;;
69087;SDS011;56190;43.562;5.036;2022-09-13T12:11:26;3.47;;;1.52;;
69087;SDS011;56190;43.562;5.036;2022-09-13T12:13:56;4.00;;;1.40;;
69087;SDS011;56190;43.562;5.036;2022-09-13T12:16:24;2.47;;;1.38;;
69087;SDS011;56190;43.562;5.036;2022-09-13T12:18:52;3.85;;;1.83;;
69087;SDS011;56190;43.562;5.036;2022-09-13T12:24:20;7.88;;;1.70;;
69087;SDS011;56190;43.562;5.036;2022-09-13T12:26:50;2.88;;;1.42;;
69087;SDS011;56190;43.562;5.036;2022-09-13T12:32:03;5.55;;;1.50;;
69087;SDS011;56190;43.562;5.036;2022-09-13T12:35:29;3.30;;;1.55;;
69087;SDS011;56190;43.562;5.036;2022-09-13T12:37:27;2.60;;;1.60;;
69087;SDS011;56190;43.562;5.036;2022-09-13T12:42:39;2.78;;;1.70;;
69087;SDS011;56190;43.562;5.036;2022-09-13T12:55:48;2.45;;;1.40;;
69087;SDS011;56190;43.562;5.036;2022-09-13T13:01:04;3.28;;;1.30;;
69087;SDS011;56190;43.562;5.036;2022-09-13T13:03:35;2.50;;;1.40;;
69087;SDS011;56190;43.562;5.036;2022-09-13T13:06:09;2.38;;;1.50;;
69087;SDS011;56190;43.562;5.036;2022-09-13T13:08:35;2.95;;;1.40;;
69087;SDS011;56190;43.562;5.036;2022-09-13T13:11:02;3.08;;;1.38;;
69087;SDS011;56190;43.562;5.036;2022-09-13T13:13:43;5.05;;;1.38;;
69087;SDS011;56190;43.562;5.036;2022-09-13T13:18:54;4.85;;;1.67;;
69087;SDS011;56190;43.562;5.036;2022-09-13T13:23:47;3.60;;;1.50;;
69087;SDS011;56190;43.562;5.036;2022-09-13T13:26:43;4.82;;;1.38;;
69087;SDS011;56190;43.562;5.036;2022-09-13T13:31:35;4.45;;;1.55;;
69087;SDS011;56190;43.562;5.036;2022-09-13T13:38:56;1.77;;;1.10;;
69087;SDS011;56190;43.562;5.036;2022-09-13T13:44:01;3.50;;;1.55;;
69087;SDS011;56190;43.562;5.036;2022-09-13T13:46:48;4.95;;;1.60;;
69087;SDS011;56190;43.562;5.036;2022-09-13T13:57:01;3.28;;;1.35;;
69087;SDS011;56190;43.562;5.036;2022-09-13T13:59:29;4.28;;;1.63;;
69087;SDS011;56190;43.562;5.036;2022-09-13T14:01:57;3.17;;;1.23;;
69087;SDS011;56190;43.562;5.036;2022-09-13T14:07:01;4.63;;;1.73;;
69087;SDS011;56190;43.562;5.036;2022-09-13T14:12:09;3.97;;;1.45;;
69087;SDS011;56190;43.562;5.036;2022-09-13T14:19:47;2.05;;;1.20;;
69087;SDS011;56190;43.562;5.036;2022-09-13T14:22:18;3.22;;;1.35;;
69087;SDS011;56190;43.562;5.036;2022-09-13T14:24:47;4.90;;;1.48;;
69087;SDS011;56190;43.562;5.036;2022-09-13T14:27:23;3.42;;;1.33;;
69087;SDS011;56190;43.562;5.036;2022-09-13T14:29:51;6.68;;;1.83;;
69087;SDS011;56190;43.562;5.036;2022-09-13T14:32:18;5.93;;;1.67;;
69087;SDS011;56190;43.562;5.036;2022-09-13T14:37:36;2.70;;;1.48;;
69087;SDS011;56190;43.562;5.036;2022-09-13T14:42:37;3.65;;;1.30;;
69087;SDS011;56190;43.562;5.036;2022-09-13T14:45:02;2.92;;;1.50;;
69087;SDS011;56190;43.562;5.036;2022-09-13T14:47:29;2.53;;;1.30;;
69087;SDS011;56190;43.562;5.036;2022-09-13T14:50:05;2.63;;;1.27;;
69087;SDS011;56190;43.562;5.036;2022-09-13T14:52:35;4.88;;;1.40;;
69087;SDS011;56190;43.562;5.036;2022-09-13T14:55:04;2.97;;;1.30;;
69087;SDS011;56190;43.562;5.036;2022-09-13T14:57:34;2.97;;;1.50;;
69087;SDS011;56190;43.562;5.036;2022-09-13T15:00:03;2.75;;;1.17;;
69087;SDS011;56190;43.562;5.036;2022-09-13T15:02:31;5.78;;;1.33;;
69087;SDS011;56190;43.562;5.036;2022-09-13T15:04:59;1.20;;;1.00;;
69087;SDS011;56190;43.562;5.036;2022-09-13T15:10:42;2.00;;;1.15;;
69087;SDS011;56190;43.562;5.036;2022-09-13T15:17:57;4.22;;;1.67;;
69087;SDS011;56190;43.562;5.036;2022-09-13T15:20:43;1.73;;;1.40;;
69087;SDS011;56190;43.562;5.036;2022-09-13T15:23:12;3.88;;;1.60;;
69087;SDS011;56190;43.562;5.036;2022-09-13T15:25:38;5.65;;;1.42;;
69087;SDS011;56190;43.562;5.036;2022-09-13T15:28:03;2.70;;;1.30;;
69087;SDS011;56190;43.562;5.036;2022-09-13T15:30:30;1.88;;;1.30;;
69087;SDS011;56190;43.562;5.036;2022-09-13T15:35:50;5.03;;;1.40;;
69087;SDS011;56190;43.562;5.036;2022-09-13T15:38:27;3.42;;;1.50;;
69087;SDS011;56190;43.562;5.036;2022-09-13T15:40:59;3.10;;;1.83;;
69087;SDS011;56190;43.562;5.036;2022-09-13T15:43:25;3.38;;;1.50;;
69087;SDS011;56190;43.562;5.036;2022-09-13T15:45:50;2.70;;;1.20;;
69087;SDS011;56190;43.562;5.036;2022-09-13T15:48:49;1.50;;;1.40;;
69087;SDS011;56190;43.562;5.036;2022-09-13T15:51:11;4.38;;;1.45;;
69087;SDS011;56190;43.562;5.036;2022-09-13T15:53:37;3.70;;;1.80;;
69087;SDS011;56190;43.562;5.036;2022-09-13T15:56:03;4.60;;;1.73;;
69087;SDS011;56190;43.562;5.036;2022-09-13T15:58:29;2.08;;;1.30;;
69087;SDS011;56190;43.562;5.036;2022-09-13T16:00:54;3.83;;;1.48;;
69087;SDS011;56190;43.562;5.036;2022-09-13T16:03:19;4.10;;;1.58;;
69087;SDS011;56190;43.562;5.036;2022-09-13T16:05:45;3.35;;;1.65;;
69087;SDS011;56190;43.562;5.036;2022-09-13T16:08:10;4.95;;;2.00;;
69087;SDS011;56190;43.562;5.036;2022-09-13T16:10:36;2.80;;;1.58;;
69087;SDS011;56190;43.562;5.036;2022-09-13T16:13:01;4.75;;;1.50;;
69087;SDS011;56190;43.562;5.036;2022-09-13T16:15:26;4.22;;;1.92;;
69087;SDS011;56190;43.562;5.036;2022-09-13T16:17:52;5.78;;;1.67;;
69087;SDS011;56190;43.562;5.036;2022-09-13T16:20:17;6.13;;;1.60;;
69087;SDS011;56190;43.562;5.036;2022-09-13T16:22:43;4.97;;;1.73;;
69087;SDS011;56190;43.562;5.036;2022-09-13T16:25:11;4.60;;;1.60;;
69087;SDS011;56190;43.562;5.036;2022-09-13T16:27:37;3.03;;;1.60;;
69087;SDS011;56190;43.562;5.036;2022-09-13T16:30:02;2.30;;;1.42;;
69087;SDS011;56190;43.562;5.036;2022-09-13T16:32:28;2.40;;;1.58;;
69087;SDS011;56190;43.562;5.036;2022-09-13T16:34:53;3.53;;;1.60;;
69087;SDS011;56190;43.562;5.036;2022-09-13T16:37:18;4.78;;;1.67;;
69087;SDS011;56190;43.562;5.036;2022-09-13T16:39:44;2.60;;;1.35;;
69087;SDS011;56190;43.562;5.036;2022-09-13T16:42:10;4.05;;;1.92;;
69087;SDS011;56190;43.562;5.036;2022-09-13T16:44:35;5.57;;;1.52;;
69087;SDS011;56190;43.562;5.036;2022-09-13T16:47:01;5.00;;;1.63;;
69087;SDS011;56190;43.562;5.036;2022-09-13T16:49:26;6.60;;;2.28;;
69087;SDS011;56190;43.562;5.036;2022-09-13T16:51:51;3.50;;;1.67;;
69087;SDS011;56190;43.562;5.036;2022-09-13T16:54:17;3.88;;;1.50;;
69087;SDS011;56190;43.562;5.036;2022-09-13T16:56:42;3.17;;;1.70;;
69087;SDS011;56190;43.562;5.036;2022-09-13T16:59:07;4.60;;;1.92;;
69087;SDS011;56190;43.562;5.036;2022-09-13T17:01:33;5.25;;;1.85;;
69087;SDS011;56190;43.562;5.036;2022-09-13T17:03:58;5.38;;;1.98;;
69087;SDS011;56190;43.562;5.036;2022-09-13T17:06:24;3.83;;;1.70;;
69087;SDS011;56190;43.562;5.036;2022-09-13T17:08:51;4.50;;;2.08;;
69087;SDS011;56190;43.562;5.036;2022-09-13T17:11:18;5.55;;;1.88;;
69087;SDS011;56190;43.562;5.036;2022-09-13T17:13:44;4.70;;;2.10;;
69087;SDS011;56190;43.562;5.036;2022-09-13T17:16:24;5.60;;;2.03;;
69087;SDS011;56190;43.562;5.036;2022-09-13T17:18:49;4.65;;;2.53;;
69087;SDS011;56190;43.562;5.036;2022-09-13T17:21:15;5.47;;;2.30;;
69087;SDS011;56190;43.562;5.036;2022-09-13T17:23:40;2.85;;;1.75;;
69087;SDS011;56190;43.562;5.036;2022-09-13T17:26:06;5.65;;;2.15;;
69087;SDS011;56190;43.562;5.036;2022-09-13T17:28:31;3.67;;;2.08;;
69087;SDS011;56190;43.562;5.036;2022-09-13T17:30:59;3.85;;;2.08;;
69087;SDS011;56190;43.562;5.036;2022-09-13T17:33:24;3.72;;;2.10;;
69087;SDS011;56190;43.562;5.036;2022-09-13T17:36:06;6.72;;;3.13;;
69087;SDS011;56190;43.562;5.036;2022-09-13T17:38:32;5.03;;;2.65;;
69087;SDS011;56190;43.562;5.036;2022-09-13T17:41:02;8.25;;;3.28;;
69087;SDS011;56190;43.562;5.036;2022-09-13T17:43:27;7.30;;;4.40;;
69087;SDS011;56190;43.562;5.036;2022-09-13T17:45:53;4.53;;;2.40;;
69087;SDS011;56190;43.562;5.036;2022-09-13T17:48:18;5.30;;;2.88;;
69087;SDS011;56190;43.562;5.036;2022-09-13T17:50:43;2.75;;;1.80;;
69087;SDS011;56190;43.562;5.036;2022-09-13T17:53:08;5.50;;;1.80;;
69087;SDS011;56190;43.562;5.036;2022-09-13T17:55:36;4.20;;;1.70;;
69087;SDS011;56190;43.562;5.036;2022-09-13T17:58:01;3.20;;;1.55;;
69087;SDS011;56190;43.562;5.036;2022-09-13T18:00:26;3.95;;;1.98;;
69087;SDS011;56190;43.562;5.036;2022-09-13T18:02:52;3.70;;;2.08;;
69087;SDS011;56190;43.562;5.036;2022-09-13T18:05:18;5.47;;;2.55;;
69087;SDS011;56190;43.562;5.036;2022-09-13T18:07:43;6.97;;;2.58;;
69087;SDS011;56190;43.562;5.036;2022-09-13T18:10:08;5.75;;;2.10;;
69087;SDS011;56190;43.562;5.036;2022-09-13T18:12:33;3.70;;;2.10;;
69087;SDS011;56190;43.562;5.036;2022-09-13T18:14:59;5.65;;;2.15;;
69087;SDS011;56190;43.562;5.036;2022-09-13T18:17:24;5.35;;;1.90;;
69087;SDS011;56190;43.562;5.036;2022-09-13T18:19:50;4.93;;;2.45;;